createdAt,value
2018-10-21T00:00:49.551Z,0.00
2018-10-21T00:01:49.498Z,0.00
2018-10-21T00:02:49.454Z,0.00
2018-10-21T00:03:49.401Z,0.00
2018-10-21T00:04:49.351Z,0.00
2018-10-21T00:05:49.305Z,0.00
2018-10-21T00:06:49.253Z,0.00
2018-10-21T00:07:49.204Z,0.00
2018-10-21T00:08:49.155Z,0.00
2018-10-21T00:09:49.106Z,0.00
2018-10-21T00:10:49.057Z,0.00
2018-10-21T00:11:49.010Z,0.00
2018-10-21T00:12:48.960Z,0.00
2018-10-21T00:13:48.910Z,0.00
2018-10-21T00:14:48.866Z,0.00
2018-10-21T00:15:48.813Z,0.00
2018-10-21T00:16:48.764Z,0.00
2018-10-21T00:17:48.715Z,0.00
2018-10-21T00:18:48.665Z,0.00
2018-10-21T00:19:48.617Z,0.00
2018-10-21T00:20:48.567Z,0.00
2018-10-21T00:21:48.518Z,0.00
2018-10-21T00:22:48.469Z,0.00
2018-10-21T00:23:48.421Z,0.00
2018-10-21T00:24:48.371Z,0.00
2018-10-21T00:25:48.322Z,0.00
2018-10-21T00:26:48.273Z,0.00
2018-10-21T00:27:48.224Z,0.00
2018-10-21T00:28:48.175Z,0.00
2018-10-21T00:29:48.127Z,0.00
2018-10-21T00:30:48.077Z,0.00
2018-10-21T00:31:48.027Z,0.00
2018-10-21T00:32:47.979Z,0.00
2018-10-21T00:33:47.930Z,0.00
2018-10-21T00:34:47.881Z,0.00
2018-10-21T00:35:47.833Z,0.00
2018-10-21T00:36:47.783Z,0.00
2018-10-21T00:37:47.734Z,0.00
2018-10-21T00:38:47.685Z,0.00
2018-10-21T00:39:47.638Z,0.00
2018-10-21T00:40:47.588Z,0.00
2018-10-21T00:41:47.538Z,0.00
2018-10-21T00:42:47.489Z,0.00
2018-10-21T00:43:47.440Z,0.00
2018-10-21T00:44:47.391Z,0.00
2018-10-21T00:45:47.343Z,0.00
2018-10-21T00:46:47.309Z,0.00
2018-10-21T00:47:47.244Z,0.00
2018-10-21T00:48:47.195Z,0.00
2018-10-21T00:49:47.145Z,0.00
2018-10-21T00:50:47.096Z,0.00
2018-10-21T00:51:47.047Z,0.00
2018-10-21T00:52:46.998Z,0.00
2018-10-21T00:53:46.949Z,0.00
2018-10-21T00:54:46.900Z,0.00
2018-10-21T00:55:46.851Z,0.00
2018-10-21T00:56:46.801Z,0.00
2018-10-21T00:57:46.752Z,0.00
2018-10-21T00:58:46.703Z,0.00
2018-10-21T00:59:46.654Z,0.00
2018-10-21T01:00:46.608Z,0.00
2018-10-21T01:01:46.556Z,0.00
2018-10-21T01:02:46.507Z,0.00
2018-10-21T01:03:46.458Z,0.00
2018-10-21T01:04:46.411Z,0.00
2018-10-21T01:05:46.362Z,0.00
2018-10-21T01:06:46.310Z,0.00
2018-10-21T01:07:46.261Z,0.00
2018-10-21T01:08:46.216Z,0.00
2018-10-21T01:09:46.162Z,0.00
2018-10-21T01:10:46.113Z,0.00
2018-10-21T01:11:46.064Z,0.00
2018-10-21T01:12:46.015Z,0.00
2018-10-21T01:13:45.967Z,0.00
2018-10-21T01:14:45.917Z,0.00
2018-10-21T01:15:45.868Z,0.00
2018-10-21T01:16:45.818Z,0.00
2018-10-21T01:17:45.769Z,0.00
2018-10-21T01:18:45.720Z,0.00
2018-10-21T01:19:45.671Z,0.00
2018-10-21T01:20:45.622Z,0.00
2018-10-21T01:21:45.573Z,0.00
2018-10-21T01:22:45.524Z,0.00
2018-10-21T01:23:45.475Z,0.00
2018-10-21T01:24:45.426Z,0.00
2018-10-21T01:25:45.377Z,0.00
2018-10-21T01:26:45.327Z,0.00
2018-10-21T01:27:45.278Z,0.00
2018-10-21T01:28:45.229Z,0.00
2018-10-21T01:29:45.181Z,0.00
2018-10-21T01:30:45.131Z,0.00
2018-10-21T01:31:45.082Z,0.00
2018-10-21T01:32:45.033Z,0.00
2018-10-21T01:33:44.984Z,0.00
2018-10-21T01:34:44.934Z,0.00
2018-10-21T01:35:44.885Z,0.00
2018-10-21T01:36:44.875Z,0.00
2018-10-21T01:37:44.790Z,0.00
2018-10-21T01:38:44.737Z,0.00
2018-10-21T01:39:44.689Z,0.00
2018-10-21T01:40:44.641Z,0.00
2018-10-21T01:41:44.591Z,0.00
2018-10-21T01:42:44.541Z,0.00
2018-10-21T01:43:44.492Z,0.00
2018-10-21T01:44:44.443Z,0.00
2018-10-21T01:45:44.395Z,0.00
2018-10-21T01:46:44.345Z,0.00
2018-10-21T01:47:44.298Z,0.00
2018-10-21T01:48:44.248Z,0.00
2018-10-21T01:49:44.197Z,0.00
2018-10-21T01:50:44.149Z,0.00
2018-10-21T01:51:44.099Z,0.00
2018-10-21T01:52:44.050Z,0.00
2018-10-21T01:53:44.001Z,0.00
2018-10-21T01:54:43.952Z,0.00
2018-10-21T01:55:43.902Z,0.00
2018-10-21T01:56:43.854Z,0.00
2018-10-21T01:57:43.804Z,0.00
2018-10-21T01:58:43.754Z,0.00
2018-10-21T01:59:43.705Z,0.00
2018-10-21T02:00:43.688Z,0.00
2018-10-21T02:01:43.608Z,0.00
2018-10-21T02:02:43.558Z,0.00
2018-10-21T02:03:43.510Z,0.00
2018-10-21T02:04:43.460Z,0.00
2018-10-21T02:05:43.420Z,0.00
2018-10-21T02:06:43.365Z,0.00
2018-10-21T02:07:43.313Z,0.00
2018-10-21T02:08:43.263Z,0.00
2018-10-21T02:09:43.214Z,0.00
2018-10-21T02:10:43.165Z,0.00
2018-10-21T02:11:43.117Z,0.00
2018-10-21T02:12:43.067Z,0.00
2018-10-21T02:13:43.018Z,0.00
2018-10-21T02:14:42.970Z,0.00
2018-10-21T02:15:42.919Z,0.00
2018-10-21T02:16:42.870Z,0.00
2018-10-21T02:17:42.823Z,0.00
2018-10-21T02:18:42.773Z,0.00
2018-10-21T02:19:42.723Z,0.00
2018-10-21T02:20:42.675Z,0.00
2018-10-21T02:21:42.625Z,0.00
2018-10-21T02:22:42.576Z,0.00
2018-10-21T02:23:42.527Z,0.00
2018-10-21T02:24:42.478Z,0.00
2018-10-21T02:25:42.429Z,0.00
2018-10-21T02:26:42.420Z,0.00
2018-10-21T02:27:42.334Z,0.00
2018-10-21T02:28:42.282Z,0.00
2018-10-21T02:29:42.232Z,0.00
2018-10-21T02:30:42.184Z,0.00
2018-10-21T02:31:42.135Z,0.00
2018-10-21T02:32:42.088Z,0.00
2018-10-21T02:33:42.212Z,0.00
2018-10-21T02:34:41.989Z,0.00
2018-10-21T02:35:41.939Z,0.00
2018-10-21T02:36:41.889Z,0.00
2018-10-21T02:37:41.840Z,0.00
2018-10-21T02:38:41.791Z,0.00
2018-10-21T02:39:41.743Z,0.00
2018-10-21T02:40:41.693Z,0.00
2018-10-21T02:41:41.644Z,0.00
2018-10-21T02:42:41.594Z,0.00
2018-10-21T02:43:41.548Z,0.00
2018-10-21T02:44:41.496Z,0.00
2018-10-21T02:45:41.447Z,0.00
2018-10-21T02:46:41.398Z,0.00
2018-10-21T02:47:41.350Z,0.00
2018-10-21T02:48:41.300Z,0.00
2018-10-21T02:49:41.256Z,0.00
2018-10-21T02:50:41.202Z,0.00
2018-10-21T02:51:41.175Z,0.00
2018-10-21T02:52:41.106Z,0.00
2018-10-21T02:53:41.055Z,0.00
2018-10-21T02:54:41.006Z,0.00
2018-10-21T02:55:40.956Z,0.00
2018-10-21T02:56:40.910Z,0.00
2018-10-21T02:57:40.863Z,0.00
2018-10-21T02:58:40.810Z,0.00
2018-10-21T02:59:40.764Z,0.00
2018-10-21T03:00:40.710Z,0.00
2018-10-21T03:01:40.662Z,0.00
2018-10-21T03:02:40.613Z,0.00
2018-10-21T03:03:40.563Z,0.00
2018-10-21T03:04:40.514Z,0.00
2018-10-21T03:05:40.476Z,0.00
2018-10-21T03:06:40.416Z,0.00
2018-10-21T03:07:40.367Z,0.00
2018-10-21T03:08:40.318Z,0.00
2018-10-21T03:09:40.268Z,0.00
2018-10-21T03:10:40.220Z,0.00
2018-10-21T03:11:40.170Z,0.00
2018-10-21T03:12:40.120Z,0.00
2018-10-21T03:13:40.071Z,0.00
2018-10-21T03:14:40.022Z,0.00
2018-10-21T03:15:39.975Z,0.00
2018-10-21T03:16:39.923Z,0.00
2018-10-21T03:17:39.874Z,0.00
2018-10-21T03:18:39.828Z,0.00
2018-10-21T03:19:39.776Z,0.00
2018-10-21T03:20:39.727Z,0.00
2018-10-21T03:21:39.718Z,0.00
2018-10-21T03:22:39.628Z,0.00
2018-10-21T03:23:39.582Z,0.00
2018-10-21T03:24:39.530Z,0.00
2018-10-21T03:25:39.481Z,0.00
2018-10-21T03:26:39.432Z,0.00
2018-10-21T03:27:39.388Z,0.00
2018-10-21T03:28:39.334Z,0.00
2018-10-21T03:29:39.284Z,0.00
2018-10-21T03:30:39.238Z,0.00
2018-10-21T03:31:39.186Z,0.00
2018-10-21T03:32:39.138Z,0.00
2018-10-21T03:33:39.224Z,0.00
2018-10-21T03:34:39.038Z,0.00
2018-10-21T03:35:38.988Z,0.00
2018-10-21T03:36:38.942Z,0.00
2018-10-21T03:37:38.890Z,0.00
2018-10-21T03:38:38.841Z,0.00
2018-10-21T03:39:38.797Z,0.00
2018-10-21T03:40:38.747Z,0.00
2018-10-21T03:41:38.694Z,0.00
2018-10-21T03:42:38.645Z,0.00
2018-10-21T03:43:38.595Z,0.00
2018-10-21T03:44:38.546Z,0.00
2018-10-21T03:45:38.510Z,0.00
2018-10-21T03:46:38.447Z,0.00
2018-10-21T03:47:38.398Z,0.00
2018-10-21T03:48:38.349Z,0.00
2018-10-21T03:49:38.301Z,0.00
2018-10-21T03:50:38.250Z,0.00
2018-10-21T03:51:38.200Z,0.00
2018-10-21T03:52:38.151Z,0.00
2018-10-21T03:53:38.102Z,0.00
2018-10-21T03:54:38.053Z,0.00
2018-10-21T03:55:38.003Z,0.00
2018-10-21T03:56:37.957Z,0.00
2018-10-21T03:57:37.909Z,0.00
2018-10-21T03:58:37.858Z,0.00
2018-10-21T03:59:37.806Z,0.00
2018-10-21T04:00:37.761Z,0.00
2018-10-21T04:01:37.708Z,0.00
2018-10-21T04:02:37.660Z,0.00
2018-10-21T04:03:37.610Z,0.00
2018-10-21T04:04:37.562Z,0.00
2018-10-21T04:05:37.513Z,0.00
2018-10-21T04:06:37.463Z,0.00
2018-10-21T04:07:37.412Z,0.00
2018-10-21T04:08:37.364Z,0.00
2018-10-21T04:09:37.314Z,0.00
2018-10-21T04:10:37.264Z,0.00
2018-10-21T04:11:37.214Z,0.00
2018-10-21T04:13:37.116Z,0.00
2018-10-21T04:14:37.067Z,0.00
2018-10-21T04:15:37.018Z,0.00
2018-10-21T04:16:36.971Z,0.00
2018-10-21T04:17:36.919Z,0.00
2018-10-21T04:18:36.872Z,0.00
2018-10-21T04:19:36.822Z,0.00
2018-10-21T04:20:36.772Z,0.00
2018-10-21T04:21:36.723Z,0.00
2018-10-21T04:22:36.673Z,0.00
2018-10-21T04:23:36.624Z,0.00
2018-10-21T04:24:36.575Z,0.00
2018-10-21T04:25:36.526Z,0.00
2018-10-21T04:26:36.477Z,0.00
2018-10-21T04:27:36.427Z,0.00
2018-10-21T04:28:36.378Z,0.00
2018-10-21T04:29:36.329Z,0.00
2018-10-21T04:30:36.279Z,0.00
2018-10-21T04:31:36.231Z,0.00
2018-10-21T04:32:36.181Z,0.00
2018-10-21T04:33:36.132Z,0.00
2018-10-21T04:34:36.084Z,0.00
2018-10-21T04:35:36.172Z,0.00
2018-10-21T04:36:35.984Z,0.00
2018-10-21T04:37:35.935Z,0.00
2018-10-21T04:38:35.886Z,0.00
2018-10-21T04:39:35.837Z,0.00
2018-10-21T04:40:35.788Z,0.00
2018-10-21T04:41:35.738Z,0.00
2018-10-21T04:42:35.689Z,0.00
2018-10-21T04:43:35.640Z,0.00
2018-10-21T04:44:35.591Z,0.00
2018-10-21T04:45:35.542Z,0.00
2018-10-21T04:46:35.518Z,0.00
2018-10-21T04:47:35.443Z,0.00
2018-10-21T04:48:35.394Z,0.00
2018-10-21T04:49:35.345Z,0.00
2018-10-21T04:50:35.299Z,0.00
2018-10-21T04:51:35.246Z,0.00
2018-10-21T04:52:35.197Z,0.00
2018-10-21T04:53:35.148Z,0.00
2018-10-21T04:54:35.099Z,0.00
2018-10-21T04:55:35.106Z,0.00
2018-10-21T04:56:35.000Z,0.00
2018-10-21T04:57:34.951Z,0.00
2018-10-21T04:58:34.901Z,0.00
2018-10-21T04:59:34.853Z,0.00
2018-10-21T05:00:34.816Z,0.00
2018-10-21T05:01:34.754Z,0.00
2018-10-21T05:02:34.705Z,0.00
2018-10-21T05:03:34.655Z,0.00
2018-10-21T05:04:34.608Z,0.00
2018-10-21T05:05:34.559Z,0.00
2018-10-21T05:06:34.508Z,0.00
2018-10-21T05:07:34.510Z,0.00
2018-10-21T05:08:34.411Z,0.00
2018-10-21T05:09:34.361Z,0.00
2018-10-21T05:10:34.310Z,0.00
2018-10-21T05:11:34.307Z,0.00
2018-10-21T05:12:34.213Z,0.00
2018-10-21T05:13:34.162Z,0.00
2018-10-21T05:14:34.113Z,0.00
2018-10-21T05:15:34.141Z,0.00
2018-10-21T05:16:34.062Z,0.00
2018-10-21T05:17:33.969Z,0.00
2018-10-21T05:18:33.916Z,0.00
2018-10-21T05:19:33.867Z,0.00
2018-10-21T05:20:33.817Z,0.00
2018-10-21T05:21:33.768Z,0.00
2018-10-21T05:22:33.719Z,0.00
2018-10-21T05:23:33.669Z,0.00
2018-10-21T05:24:33.619Z,0.00
2018-10-21T05:25:33.570Z,0.00
2018-10-21T05:26:33.523Z,0.00
2018-10-21T05:27:33.472Z,0.00
2018-10-21T05:28:33.423Z,0.00
2018-10-21T05:29:33.374Z,0.00
2018-10-21T05:30:33.325Z,0.00
2018-10-21T05:31:33.277Z,0.00
2018-10-21T05:32:33.225Z,0.00
2018-10-21T05:33:33.176Z,0.00
2018-10-21T05:34:33.128Z,0.00
2018-10-21T05:35:33.083Z,0.00
2018-10-21T05:36:33.028Z,0.00
2018-10-21T05:37:32.979Z,0.00
2018-10-21T05:38:32.933Z,0.00
2018-10-21T05:39:32.882Z,0.00
2018-10-21T05:40:32.846Z,0.00
2018-10-21T05:41:32.781Z,0.00
2018-10-21T05:42:32.731Z,0.00
2018-10-21T05:43:32.682Z,0.00
2018-10-21T05:44:32.632Z,0.00
2018-10-21T05:45:32.583Z,0.00
2018-10-21T05:46:32.556Z,0.00
2018-10-21T05:47:32.484Z,0.00
2018-10-21T05:48:32.435Z,0.00
2018-10-21T05:49:32.387Z,0.00
2018-10-21T05:50:32.340Z,0.00
2018-10-21T05:51:32.287Z,0.00
2018-10-21T05:52:32.237Z,0.00
2018-10-21T05:53:32.187Z,0.00
2018-10-21T05:54:32.139Z,0.00
2018-10-21T05:55:32.088Z,0.00
2018-10-21T05:56:32.039Z,0.00
2018-10-21T05:57:31.990Z,0.00
2018-10-21T05:58:32.009Z,0.00
2018-10-21T05:59:31.890Z,0.00
2018-10-21T06:00:31.843Z,0.00
2018-10-21T06:01:31.791Z,0.00
2018-10-21T06:02:31.741Z,0.00
2018-10-21T06:03:31.694Z,0.00
2018-10-21T06:04:31.644Z,0.00
2018-10-21T06:05:31.598Z,0.00
2018-10-21T06:06:31.544Z,0.00
2018-10-21T06:07:31.494Z,0.00
2018-10-21T06:08:31.444Z,0.00
2018-10-21T06:09:31.395Z,0.00
2018-10-21T06:10:31.345Z,0.00
2018-10-21T06:11:31.296Z,0.00
2018-10-21T06:12:31.247Z,0.00
2018-10-21T06:13:31.197Z,0.00
2018-10-21T06:14:31.149Z,0.00
2018-10-21T06:15:31.097Z,0.00
2018-10-21T06:16:31.048Z,0.00
2018-10-21T06:17:30.998Z,0.00
2018-10-21T06:18:30.948Z,0.00
2018-10-21T06:19:30.899Z,0.00
2018-10-21T06:20:30.850Z,0.00
2018-10-21T06:21:30.801Z,0.00
2018-10-21T06:22:30.750Z,0.00
2018-10-21T06:23:30.706Z,0.00
2018-10-21T06:24:30.656Z,0.00
2018-10-21T06:25:30.611Z,0.00
2018-10-21T06:26:30.552Z,0.00
2018-10-21T06:27:30.529Z,0.00
2018-10-21T06:28:30.453Z,0.00
2018-10-21T06:29:30.408Z,0.00
2018-10-21T06:30:30.355Z,0.00
2018-10-21T06:31:30.305Z,0.00
2018-10-21T06:32:30.257Z,0.00
2018-10-21T06:33:30.260Z,0.00
2018-10-21T06:34:30.161Z,0.00
2018-10-21T06:35:30.106Z,0.00
2018-10-21T06:36:30.094Z,0.00
2018-10-21T06:37:30.009Z,0.00
2018-10-21T06:38:29.958Z,0.00
2018-10-21T06:39:29.909Z,0.00
2018-10-21T06:40:29.862Z,0.00
2018-10-21T06:41:29.810Z,0.00
2018-10-21T06:42:29.760Z,0.00
2018-10-21T06:43:29.710Z,0.00
2018-10-21T06:44:29.660Z,0.00
2018-10-21T06:45:29.627Z,0.00
2018-10-21T06:46:29.562Z,0.00
2018-10-21T06:47:29.512Z,0.00
2018-10-21T06:48:29.523Z,0.00
2018-10-21T06:49:29.413Z,0.00
2018-10-21T06:50:29.363Z,0.00
2018-10-21T06:51:29.314Z,0.00
2018-10-21T06:52:29.264Z,0.00
2018-10-21T06:53:29.215Z,0.00
2018-10-21T06:54:29.165Z,0.00
2018-10-21T06:55:29.117Z,0.00
2018-10-21T06:56:29.159Z,0.00
2018-10-21T06:57:29.141Z,0.00
2018-10-21T06:58:28.967Z,0.00
2018-10-21T06:59:28.924Z,0.00
2018-10-21T07:00:28.870Z,0.00
2018-10-21T07:01:28.818Z,0.00
2018-10-21T07:02:28.774Z,0.00
2018-10-21T07:03:28.719Z,0.00
2018-10-21T07:04:28.759Z,0.00
2018-10-21T07:05:28.620Z,0.00
2018-10-21T07:06:28.571Z,0.00
2018-10-21T07:07:28.522Z,0.00
2018-10-21T07:08:28.472Z,0.00
2018-10-21T07:09:28.422Z,0.00
2018-10-21T07:10:28.374Z,0.00
2018-10-21T07:11:28.323Z,0.00
2018-10-21T07:12:28.272Z,0.00
2018-10-21T07:13:28.225Z,0.00
2018-10-21T07:14:28.187Z,0.00
2018-10-21T07:15:28.141Z,0.00
2018-10-21T07:16:28.182Z,0.00
2018-10-21T07:17:28.028Z,0.00
2018-10-21T07:18:27.975Z,0.00
2018-10-21T07:19:27.926Z,0.00
2018-10-21T07:20:27.876Z,0.00
2018-10-21T07:21:27.827Z,0.00
2018-10-21T07:22:27.780Z,0.00
2018-10-21T07:23:27.727Z,0.00
2018-10-21T07:24:27.677Z,0.00
2018-10-21T07:25:27.628Z,0.00
2018-10-21T07:26:27.578Z,0.00
2018-10-21T07:27:27.530Z,0.00
2018-10-21T07:28:27.521Z,0.00
2018-10-21T07:29:27.429Z,0.00
2018-10-21T07:30:27.379Z,0.00
2018-10-21T07:31:27.329Z,0.00
2018-10-21T07:32:27.281Z,0.00
2018-10-21T07:33:27.231Z,0.00
2018-10-21T07:34:27.183Z,0.00
2018-10-21T07:35:27.134Z,0.00
2018-10-21T07:36:27.170Z,0.00
2018-10-21T07:37:27.032Z,0.00
2018-10-21T07:38:26.982Z,0.00
2018-10-21T07:39:26.933Z,0.00
2018-10-21T07:40:26.883Z,0.00
2018-10-21T07:41:26.833Z,0.00
2018-10-21T07:42:26.783Z,0.00
2018-10-21T07:43:26.733Z,0.00
2018-10-21T07:44:26.684Z,0.00
2018-10-21T07:45:26.636Z,0.00
2018-10-21T07:46:26.584Z,0.00
2018-10-21T07:47:26.535Z,0.00
2018-10-21T07:48:26.485Z,0.00
2018-10-21T07:49:26.435Z,0.00
2018-10-21T07:50:26.390Z,0.00
2018-10-21T07:51:26.337Z,0.00
2018-10-21T07:52:26.286Z,0.00
2018-10-21T07:53:26.237Z,0.00
2018-10-21T07:54:26.187Z,0.00
2018-10-21T07:55:26.241Z,0.00
2018-10-21T07:56:26.088Z,0.00
2018-10-21T07:57:26.044Z,0.00
2018-10-21T07:58:25.988Z,0.00
2018-10-21T07:59:25.939Z,0.00
2018-10-21T08:00:25.888Z,0.00
2018-10-21T08:01:25.962Z,0.00
2018-10-21T08:02:25.789Z,0.00
2018-10-21T08:03:25.740Z,0.00
2018-10-21T08:04:25.690Z,0.00
2018-10-21T08:05:25.640Z,0.00
2018-10-21T08:06:25.590Z,0.00
2018-10-21T08:07:25.541Z,0.00
2018-10-21T08:08:25.496Z,0.00
2018-10-21T08:09:25.442Z,0.00
2018-10-21T08:10:25.393Z,4.00
2018-10-21T08:11:25.342Z,4.00
2018-10-21T08:12:25.292Z,0.00
2018-10-21T08:13:25.245Z,0.00
2018-10-21T08:14:25.193Z,4.00
2018-10-21T08:15:25.144Z,4.00
2018-10-21T08:16:25.095Z,4.00
2018-10-21T08:17:25.050Z,4.00
2018-10-21T08:18:24.995Z,4.00
2018-10-21T08:19:24.947Z,8.00
2018-10-21T08:20:24.895Z,8.00
2018-10-21T08:21:24.846Z,8.00
2018-10-21T08:22:24.796Z,12.00
2018-10-21T08:23:24.747Z,16.00
2018-10-21T08:24:24.697Z,16.00
2018-10-21T08:25:24.647Z,24.00
2018-10-21T08:26:24.597Z,24.00
2018-10-21T08:27:24.631Z,24.00
2018-10-21T08:28:24.498Z,24.00
2018-10-21T08:29:24.449Z,28.00
2018-10-21T08:30:24.399Z,32.00
2018-10-21T08:31:24.349Z,32.00
2018-10-21T08:32:24.301Z,36.00
2018-10-21T08:33:24.250Z,40.00
2018-10-21T08:34:24.204Z,48.00
2018-10-21T08:35:24.151Z,52.00
2018-10-21T08:36:24.102Z,56.00
2018-10-21T08:37:24.052Z,60.00
2018-10-21T08:38:24.002Z,64.00
2018-10-21T08:39:23.952Z,68.00
2018-10-21T08:40:23.902Z,76.00
2018-10-21T08:41:23.853Z,80.00
2018-10-21T08:42:23.803Z,88.00
2018-10-21T08:43:23.754Z,96.00
2018-10-21T08:44:23.708Z,104.00
2018-10-21T08:45:23.657Z,120.00
2018-10-21T08:46:23.851Z,136.00
2018-10-21T08:47:23.555Z,148.00
2018-10-21T08:48:23.508Z,160.00
2018-10-21T08:49:23.484Z,172.00
2018-10-21T08:50:23.406Z,184.00
2018-10-21T08:51:23.357Z,200.00
2018-10-21T08:52:23.307Z,220.00
2018-10-21T08:53:23.257Z,224.00
2018-10-21T08:54:23.209Z,212.00
2018-10-21T08:55:23.162Z,208.00
2018-10-21T08:56:23.109Z,208.00
2018-10-21T08:57:23.059Z,204.00
2018-10-21T08:58:23.009Z,212.00
2018-10-21T08:59:22.960Z,216.00
2018-10-21T09:00:22.910Z,224.00
2018-10-21T09:01:22.861Z,240.00
2018-10-21T09:02:22.812Z,256.00
2018-10-21T09:03:22.763Z,268.00
2018-10-21T09:04:22.722Z,256.00
2018-10-21T09:05:22.662Z,248.00
2018-10-21T09:06:22.612Z,260.00
2018-10-21T09:07:22.563Z,256.00
2018-10-21T09:08:22.513Z,264.00
2018-10-21T09:09:22.464Z,292.00
2018-10-21T09:10:22.628Z,340.00
2018-10-21T09:11:22.365Z,376.00
2018-10-21T09:12:22.315Z,396.00
2018-10-21T09:13:22.266Z,436.00
2018-10-21T09:14:22.219Z,480.00
2018-10-21T09:15:22.192Z,504.00
2018-10-21T09:16:22.236Z,524.00
2018-10-21T09:17:22.069Z,532.00
2018-10-21T09:18:22.019Z,516.00
2018-10-21T09:19:21.969Z,536.00
2018-10-21T09:20:21.920Z,568.00
2018-10-21T09:21:21.870Z,628.00
2018-10-21T09:22:21.822Z,712.00
2018-10-21T09:23:21.772Z,688.00
2018-10-21T09:24:21.722Z,692.00
2018-10-21T09:25:21.674Z,672.00
2018-10-21T09:26:21.623Z,672.00
2018-10-21T09:27:21.574Z,692.00
2018-10-21T09:28:21.525Z,720.00
2018-10-21T09:29:21.475Z,720.00
2018-10-21T09:30:21.427Z,756.00
2018-10-21T09:31:21.377Z,824.00
2018-10-21T09:32:21.328Z,916.00
2018-10-21T09:33:21.369Z,1092.00
2018-10-21T09:34:21.229Z,1248.00
2018-10-21T09:35:21.184Z,1472.00
2018-10-21T09:36:21.131Z,1960.00
2018-10-21T09:37:21.091Z,2664.00
2018-10-21T09:38:21.034Z,3552.00
2018-10-21T09:39:20.983Z,3596.00
2018-10-21T09:40:21.063Z,2884.00
2018-10-21T09:41:20.885Z,2340.00
2018-10-21T09:42:20.939Z,2128.00
2018-10-21T09:43:20.786Z,1944.00
2018-10-21T09:44:20.737Z,1888.00
2018-10-21T09:45:20.688Z,1904.00
2018-10-21T09:46:20.639Z,1564.00
2018-10-21T09:47:20.590Z,1352.00
2018-10-21T09:48:20.540Z,1164.00
2018-10-21T09:49:20.491Z,1000.00
2018-10-21T09:50:20.442Z,876.00
2018-10-21T09:51:20.393Z,852.00
2018-10-21T09:52:20.434Z,836.00
2018-10-21T09:53:20.295Z,768.00
2018-10-21T09:54:20.245Z,736.00
2018-10-21T09:55:20.197Z,720.00
2018-10-21T09:56:20.155Z,712.00
2018-10-21T09:57:20.098Z,696.00
2018-10-21T09:58:20.128Z,656.00
2018-10-21T09:59:20.000Z,644.00
2018-10-21T10:00:19.958Z,680.00
2018-10-21T10:01:19.901Z,704.00
2018-10-21T10:02:19.852Z,676.00
2018-10-21T10:03:19.803Z,652.00
2018-10-21T10:04:19.888Z,620.00
2018-10-21T10:05:19.775Z,608.00
2018-10-21T10:06:19.654Z,640.00
2018-10-21T10:07:19.704Z,676.00
2018-10-21T10:08:19.556Z,692.00
2018-10-21T10:09:19.508Z,696.00
2018-10-21T10:10:19.457Z,704.00
2018-10-21T10:11:19.408Z,684.00
2018-10-21T10:12:19.359Z,672.00
2018-10-21T10:13:19.445Z,704.00
2018-10-21T10:14:19.260Z,772.00
2018-10-21T10:15:19.214Z,896.00
2018-10-21T10:16:19.161Z,1016.00
2018-10-21T10:17:19.114Z,1232.00
2018-10-21T10:18:19.062Z,1340.00
2018-10-21T10:19:19.094Z,1428.00
2018-10-21T10:20:18.972Z,1324.00
2018-10-21T10:21:19.406Z,1292.00
2018-10-21T10:22:18.865Z,1232.00
2018-10-21T10:23:18.863Z,1220.00
2018-10-21T10:24:18.766Z,1288.00
2018-10-21T10:25:18.867Z,1392.00
2018-10-21T10:26:18.668Z,1712.00
2018-10-21T10:27:18.619Z,1920.00
2018-10-21T10:28:18.789Z,1880.00
2018-10-21T10:29:18.529Z,1820.00
2018-10-21T10:30:18.496Z,1912.00
2018-10-21T10:31:18.480Z,1948.00
2018-10-21T10:32:18.373Z,1860.00
2018-10-21T10:33:18.324Z,1900.00
2018-10-21T10:34:18.386Z,2180.00
2018-10-21T10:35:18.225Z,2796.00
2018-10-21T10:36:18.237Z,3208.00
2018-10-21T10:37:18.128Z,3492.00
2018-10-21T10:38:18.079Z,3960.00
2018-10-21T10:39:18.030Z,3084.00
2018-10-21T10:40:18.096Z,1924.00
2018-10-21T10:41:17.933Z,1900.00
2018-10-21T10:42:18.009Z,1940.00
2018-10-21T10:43:17.835Z,2004.00
2018-10-21T10:44:17.786Z,2024.00
2018-10-21T10:45:17.741Z,2032.00
2018-10-21T10:46:17.720Z,2172.00
2018-10-21T10:47:17.640Z,2224.00
2018-10-21T10:48:17.591Z,2128.00
2018-10-21T10:49:17.555Z,1940.00
2018-10-21T10:50:17.493Z,1860.00
2018-10-21T10:51:17.444Z,1848.00
2018-10-21T10:52:17.436Z,1888.00
2018-10-21T10:53:17.347Z,1892.00
2018-10-21T10:54:17.299Z,1884.00
2018-10-21T10:55:17.389Z,2040.00
2018-10-21T10:56:17.201Z,2300.00
2018-10-21T10:57:17.155Z,2684.00
2018-10-21T10:58:17.186Z,3308.00
2018-10-21T10:59:17.056Z,4104.00
2018-10-21T11:00:17.257Z,4700.00
2018-10-21T11:01:17.005Z,4984.00
2018-10-21T11:02:16.913Z,5080.00
2018-10-21T11:03:16.862Z,4980.00
2018-10-21T11:04:16.832Z,4544.00
2018-10-21T11:05:16.764Z,4120.00
2018-10-21T11:06:16.741Z,3888.00
2018-10-21T11:07:16.772Z,4076.00
2018-10-21T11:08:16.619Z,4312.00
2018-10-21T11:09:16.571Z,4848.00
2018-10-21T11:10:16.563Z,5700.00
2018-10-21T11:11:16.475Z,7136.00
2018-10-21T11:12:16.426Z,8328.00
2018-10-21T11:13:16.507Z,8876.00
2018-10-21T11:14:16.330Z,9632.00
2018-10-21T11:15:16.282Z,9540.00
2018-10-21T11:16:16.348Z,9576.00
2018-10-21T11:17:16.186Z,10252.00
2018-10-21T11:18:16.138Z,10324.00
2018-10-21T11:19:16.161Z,10292.00
2018-10-21T11:20:16.042Z,9260.00
2018-10-21T11:21:15.995Z,8676.00
2018-10-21T11:22:15.992Z,7656.00
2018-10-21T11:23:15.900Z,6848.00
2018-10-21T11:24:15.852Z,5728.00
2018-10-21T11:25:15.877Z,5736.00
2018-10-21T11:26:15.757Z,6132.00
2018-10-21T11:27:15.709Z,7164.00
2018-10-21T11:28:15.767Z,8104.00
2018-10-21T11:29:15.614Z,8548.00
2018-10-21T11:30:15.567Z,8760.00
2018-10-21T11:31:15.608Z,9092.00
2018-10-21T11:32:15.472Z,8108.00
2018-10-21T11:33:15.424Z,7500.00
2018-10-21T11:34:15.442Z,5636.00
2018-10-21T11:35:15.330Z,4104.00
2018-10-21T11:36:15.283Z,3312.00
2018-10-21T11:37:15.284Z,2652.00
2018-10-21T11:38:15.189Z,2396.00
2018-10-21T11:39:15.141Z,2340.00
2018-10-21T11:40:15.209Z,2260.00
2018-10-21T11:41:15.046Z,2180.00
2018-10-21T11:42:14.999Z,2160.00
2018-10-21T11:43:15.012Z,2228.00
2018-10-21T11:44:14.904Z,2340.00
2018-10-21T11:45:14.863Z,2356.00
2018-10-21T11:46:14.997Z,2288.00
2018-10-21T11:47:14.762Z,2224.00
2018-10-21T11:48:14.714Z,2196.00
2018-10-21T11:49:14.694Z,2140.00
2018-10-21T11:50:14.619Z,2116.00
2018-10-21T11:51:14.571Z,2080.00
2018-10-21T11:52:14.596Z,2100.00
2018-10-21T11:53:14.475Z,2232.00
2018-10-21T11:54:14.428Z,2488.00
2018-10-21T11:55:14.431Z,2704.00
2018-10-21T11:56:14.333Z,2736.00
2018-10-21T11:57:14.285Z,2812.00
2018-10-21T11:58:14.398Z,2828.00
2018-10-21T11:59:14.189Z,3024.00
2018-10-21T12:00:14.141Z,2832.00
2018-10-21T12:01:14.163Z,2676.00
2018-10-21T12:02:14.046Z,2524.00
2018-10-21T12:03:13.999Z,2400.00
2018-10-21T12:04:14.011Z,2196.00
2018-10-21T12:05:13.903Z,2052.00
2018-10-21T12:06:13.855Z,1988.00
2018-10-21T12:07:13.856Z,1888.00
2018-10-21T12:08:13.762Z,1784.00
2018-10-21T12:09:14.205Z,1764.00
2018-10-21T12:10:13.716Z,1808.00
2018-10-21T12:11:13.616Z,1856.00
2018-10-21T12:12:13.569Z,1852.00
2018-10-21T12:13:13.624Z,1812.00
2018-10-21T12:14:13.475Z,1852.00
2018-10-21T12:15:13.443Z,1940.00
2018-10-21T12:16:13.447Z,2036.00
2018-10-21T12:17:13.330Z,2100.00
2018-10-21T12:18:13.281Z,2048.00
2018-10-21T12:19:13.312Z,1928.00
2018-10-21T12:20:13.185Z,1824.00
2018-10-21T12:21:13.138Z,1712.00
2018-10-21T12:22:13.176Z,1608.00
2018-10-21T12:23:13.352Z,1560.00
2018-10-21T12:24:12.995Z,1580.00
2018-10-21T12:25:13.053Z,1624.00
2018-10-21T12:26:12.898Z,1708.00
2018-10-21T12:27:12.853Z,1816.00
2018-10-21T12:28:12.965Z,2028.00
2018-10-21T12:29:12.810Z,2304.00
2018-10-21T12:30:12.707Z,2652.00
2018-10-21T12:31:12.735Z,2960.00
2018-10-21T12:32:12.615Z,3196.00
2018-10-21T12:33:12.562Z,3356.00
2018-10-21T12:34:12.616Z,3228.00
2018-10-21T12:35:12.640Z,3044.00
2018-10-21T12:36:12.418Z,2932.00
2018-10-21T12:37:12.583Z,2924.00
2018-10-21T12:38:12.322Z,2976.00
2018-10-21T12:39:12.274Z,2820.00
2018-10-21T12:40:12.358Z,2596.00
2018-10-21T12:41:12.310Z,2508.00
2018-10-21T12:42:12.130Z,2572.00
2018-10-21T12:43:12.166Z,2684.00
2018-10-21T12:44:12.034Z,2648.00
2018-10-21T12:45:12.001Z,2756.00
2018-10-21T12:46:12.020Z,2988.00
2018-10-21T12:47:11.963Z,3224.00
2018-10-21T12:48:11.842Z,3468.00
2018-10-21T12:49:11.895Z,3688.00
2018-10-21T12:50:11.746Z,4116.00
2018-10-21T12:51:11.698Z,4700.00
2018-10-21T12:52:11.720Z,5400.00
2018-10-21T12:53:11.697Z,5968.00
2018-10-21T12:54:11.662Z,6332.00
2018-10-21T12:55:11.678Z,6620.00